createdAt,value
2018-05-10T00:00:31.991Z,77.10
2018-05-10T00:03:05.406Z,77.00
2018-05-10T00:05:35.307Z,76.90
2018-05-10T00:08:07.848Z,76.90
2018-05-10T00:10:36.330Z,77.30
2018-05-10T00:13:10.691Z,77.30
2018-05-10T00:15:39.204Z,77.80
2018-05-10T00:20:51.254Z,78.70
2018-05-10T00:23:20.481Z,79.00
2018-05-10T00:25:49.004Z,79.20
2018-05-10T00:28:18.979Z,78.90
2018-05-10T00:30:48.610Z,78.90
2018-05-10T00:35:49.288Z,79.20
2018-05-10T00:38:21.818Z,79.10
2018-05-10T00:40:51.118Z,80.00
2018-05-10T00:43:32.446Z,79.30
2018-05-10T00:46:01.804Z,79.50
2018-05-10T00:48:31.107Z,80.30
2018-05-10T00:51:00.972Z,80.30
2018-05-10T00:53:29.427Z,79.70
2018-05-10T00:55:59.278Z,79.80
2018-05-10T00:58:31.499Z,80.30
2018-05-10T01:01:01.116Z,81.20
2018-05-10T01:03:34.227Z,80.70
2018-05-10T01:06:03.873Z,80.60
2018-05-10T01:08:36.354Z,82.00
2018-05-10T01:11:06.276Z,80.80
2018-05-10T01:13:38.875Z,80.90
2018-05-10T01:21:10.610Z,81.70
2018-05-10T01:23:52.218Z,81.80
2018-05-10T01:26:20.952Z,82.00
2018-05-10T01:28:49.513Z,82.10
2018-05-10T01:31:18.764Z,82.00
2018-05-10T01:33:49.690Z,82.20
2018-05-10T01:36:18.584Z,82.20
2018-05-10T01:38:52.347Z,82.20
2018-05-10T01:41:21.896Z,82.90
2018-05-10T01:43:54.050Z,82.40
2018-05-10T01:46:23.702Z,82.60
2018-05-10T01:48:58.751Z,82.50
2018-05-10T01:51:28.728Z,82.60
2018-05-10T01:53:59.564Z,82.50
2018-05-10T01:56:28.831Z,82.10
2018-05-10T01:59:03.044Z,81.80
2018-05-10T02:04:04.810Z,81.00
2018-05-10T02:06:33.659Z,80.80
2018-05-10T02:09:09.455Z,80.30
2018-05-10T02:11:38.964Z,80.70
2018-05-10T02:14:20.043Z,80.30
2018-05-10T02:16:48.810Z,80.50
2018-05-10T02:24:16.567Z,80.60
2018-05-10T02:26:45.783Z,79.30
2018-05-10T02:29:17.717Z,79.70
2018-05-10T02:31:46.424Z,80.50
2018-05-10T02:34:19.415Z,81.70
2018-05-10T02:36:48.702Z,83.10
2018-05-10T02:39:21.730Z,84.10
2018-05-10T02:41:50.213Z,84.80
2018-05-10T02:44:23.935Z,85.10
2018-05-10T02:46:52.415Z,86.90
2018-05-10T02:49:25.256Z,86.30
2018-05-10T02:51:54.768Z,87.20
2018-05-10T02:54:28.677Z,86.60
2018-05-10T02:56:58.655Z,87.80
2018-05-10T02:59:39.587Z,88.40
2018-05-10T03:02:09.063Z,88.70
2018-05-10T03:04:38.639Z,89.00
2018-05-10T03:07:07.531Z,88.70
2018-05-10T03:09:37.407Z,89.10
2018-05-10T03:12:06.263Z,88.90
2018-05-10T03:14:38.637Z,89.20
2018-05-10T03:19:39.927Z,90.30
2018-05-10T03:22:08.846Z,90.00
2018-05-10T03:24:42.244Z,90.00
2018-05-10T03:27:10.703Z,90.10
2018-05-10T03:29:44.912Z,90.10
2018-05-10T03:32:14.031Z,89.50
2018-05-10T03:37:15.610Z,87.70
2018-05-10T03:39:48.750Z,86.90
2018-05-10T03:44:50.959Z,88.20
2018-05-10T03:47:20.131Z,88.30
2018-05-10T03:49:54.794Z,89.00
2018-05-10T03:52:24.680Z,88.40
2018-05-10T03:55:06.763Z,88.30
2018-05-10T03:57:36.251Z,88.90
2018-05-10T04:00:04.835Z,88.80
2018-05-10T04:02:43.342Z,88.70
2018-05-10T04:05:23.828Z,88.90
2018-05-10T04:08:05.031Z,89.00
2018-05-10T04:11:42.402Z,89.20
2018-05-10T04:14:12.374Z,89.30
2018-05-10T04:16:41.127Z,89.10
2018-05-10T04:19:13.118Z,89.40
2018-05-10T04:21:41.627Z,89.60
2018-05-10T04:24:23.102Z,89.50
2018-05-10T04:29:21.819Z,89.60
2018-05-10T04:31:50.272Z,89.80
2018-05-10T04:34:20.226Z,89.80
2018-05-10T04:36:48.959Z,89.60
2018-05-10T04:39:21.039Z,88.60
2018-05-10T04:41:50.647Z,89.50
2018-05-10T04:44:23.350Z,89.10
2018-05-10T04:46:51.872Z,88.80
2018-05-10T04:49:24.828Z,88.70
2018-05-10T04:51:53.936Z,87.50
2018-05-10T04:54:27.465Z,87.50
2018-05-10T04:59:29.923Z,86.80
2018-05-10T05:01:58.794Z,86.60
2018-05-10T05:04:31.595Z,86.50
2018-05-10T05:07:01.780Z,86.90
2018-05-10T05:09:43.007Z,86.10
2018-05-10T05:14:41.998Z,86.70
2018-05-10T05:17:10.861Z,87.10
2018-05-10T05:19:40.014Z,86.30
2018-05-10T05:22:08.854Z,87.00
2018-05-10T05:24:42.350Z,85.30
2018-05-10T05:27:11.103Z,86.10
2018-05-10T05:29:43.678Z,85.10
2018-05-10T05:34:49.188Z,83.40
2018-05-10T05:37:19.055Z,83.40
2018-05-10T05:39:49.438Z,82.50
2018-05-10T05:42:19.407Z,81.20
2018-05-10T05:44:51.454Z,80.50
2018-05-10T05:47:19.923Z,80.70
2018-05-10T05:49:53.720Z,81.10
2018-05-10T05:52:22.483Z,81.60
2018-05-10T05:54:55.158Z,81.50
2018-05-10T05:57:24.754Z,80.40
2018-05-10T05:59:59.225Z,77.00
2018-05-10T06:02:28.840Z,76.30
2018-05-10T06:05:02.225Z,75.90
2018-05-10T06:07:31.138Z,74.80
2018-05-10T06:10:04.330Z,75.10
2018-05-10T06:15:07.229Z,73.40
2018-05-10T06:17:35.696Z,73.60
2018-05-10T06:20:10.286Z,73.40
2018-05-10T06:22:39.549Z,73.70
2018-05-10T06:25:21.616Z,72.20
2018-05-10T06:27:50.095Z,71.70
2018-05-10T06:30:19.974Z,71.80
2018-05-10T06:32:49.938Z,71.80
2018-05-10T06:35:19.571Z,72.30
2018-05-10T06:37:49.116Z,71.40
2018-05-10T06:40:20.829Z,69.40
2018-05-10T06:42:50.368Z,67.80
2018-05-10T06:45:21.904Z,68.20
2018-05-10T06:47:50.389Z,69.00
2018-05-10T06:50:26.220Z,68.50
2018-05-10T06:52:56.098Z,67.40
2018-05-10T06:55:25.750Z,69.00
2018-05-10T06:57:54.651Z,71.00
2018-05-10T07:00:28.678Z,70.30
2018-05-10T07:02:57.578Z,70.90
2018-05-10T07:05:30.656Z,69.90
2018-05-10T07:08:00.164Z,70.10
2018-05-10T07:10:33.195Z,71.30
2018-05-10T07:13:02.529Z,71.10
2018-05-10T07:15:35.684Z,70.40
2018-05-10T07:18:05.769Z,71.00
2018-05-10T07:20:38.780Z,69.00
2018-05-10T07:23:07.591Z,68.20
2018-05-10T07:25:48.973Z,67.50
2018-05-10T07:28:17.872Z,68.30
2018-05-10T07:30:46.403Z,68.30
2018-05-10T07:33:16.043Z,68.10
2018-05-10T07:35:45.367Z,68.40
2018-05-10T07:38:14.615Z,66.20
2018-05-10T07:40:47.281Z,66.80
2018-05-10T07:43:16.774Z,65.40
2018-05-10T07:45:49.965Z,63.30
2018-05-10T07:48:18.843Z,63.40
2018-05-10T07:50:52.323Z,62.70
2018-05-10T07:53:21.612Z,59.80
2018-05-10T07:55:55.403Z,57.00
2018-05-10T07:58:24.136Z,55.80
2018-05-10T08:01:06.578Z,55.10
2018-05-10T08:03:36.126Z,56.30
2018-05-10T08:06:04.687Z,56.20
2018-05-10T08:11:04.223Z,58.10
2018-05-10T08:13:33.881Z,59.30
2018-05-10T08:16:07.604Z,62.50
2018-05-10T08:18:36.404Z,67.30
2018-05-10T08:21:17.622Z,65.30
2018-05-10T08:23:48.798Z,65.70
2018-05-10T08:26:18.830Z,65.20
2018-05-10T08:28:48.863Z,63.90
2018-05-10T08:31:18.605Z,63.60
2018-05-10T08:33:47.082Z,68.90
2018-05-10T08:36:16.389Z,73.40
2018-05-10T08:38:45.196Z,74.80
2018-05-10T08:41:18.311Z,72.90
2018-05-10T08:46:20.637Z,71.90
2018-05-10T08:48:50.246Z,71.10
2018-05-10T08:51:21.875Z,73.00
2018-05-10T08:53:50.687Z,72.10
2018-05-10T08:58:52.243Z,71.40
2018-05-10T09:01:26.635Z,70.70
2018-05-10T09:03:55.878Z,71.60
2018-05-10T09:06:30.319Z,70.20
2018-05-10T09:08:59.173Z,69.60
2018-05-10T09:11:30.303Z,69.00
2018-05-10T09:13:59.179Z,69.10
2018-05-10T09:19:04.039Z,69.10
2018-05-10T09:21:36.499Z,68.50
2018-05-10T09:24:05.005Z,67.40
2018-05-10T09:29:10.368Z,67.30
2018-05-10T09:31:42.690Z,66.80
2018-05-10T09:34:11.926Z,66.30
2018-05-10T09:36:44.595Z,67.00
2018-05-10T09:41:45.969Z,66.10
2018-05-10T09:44:15.172Z,67.00
2018-05-10T09:49:20.818Z,66.70
2018-05-10T09:51:52.489Z,67.00
2018-05-10T09:54:20.972Z,66.90
2018-05-10T09:56:55.316Z,66.00
2018-05-10T09:59:23.843Z,69.10
2018-05-10T10:01:56.667Z,66.50
2018-05-10T10:04:25.151Z,66.90
2018-05-10T10:06:59.894Z,67.90
2018-05-10T10:09:29.472Z,68.10
2018-05-10T10:12:02.711Z,68.60
2018-05-10T10:14:31.196Z,69.80
2018-05-10T10:17:04.724Z,69.50
2018-05-10T10:19:34.030Z,71.20
2018-05-10T10:22:07.051Z,71.70
2018-05-10T10:24:37.066Z,72.50
2018-05-10T10:27:11.504Z,72.50
2018-05-10T10:29:40.449Z,73.50
2018-05-10T10:32:21.970Z,74.40
2018-05-10T10:34:51.611Z,75.60
2018-05-10T10:37:20.866Z,75.20
2018-05-10T10:39:49.417Z,75.30
2018-05-10T10:44:47.749Z,75.30
2018-05-10T10:47:19.575Z,74.90
2018-05-10T10:49:49.276Z,75.70
2018-05-10T10:54:49.107Z,75.90
2018-05-10T10:57:23.090Z,76.00
2018-05-10T11:02:25.720Z,76.20
2018-05-10T11:04:54.395Z,75.30
2018-05-10T11:07:28.144Z,76.60
2018-05-10T11:10:35.911Z,76.70
2018-05-10T11:13:04.422Z,76.30
2018-05-10T11:15:35.760Z,75.70
2018-05-10T11:18:04.250Z,76.00
2018-05-10T11:20:36.925Z,76.30
2018-05-10T11:23:05.758Z,75.90
2018-05-10T11:25:36.580Z,75.60
2018-05-10T11:28:05.096Z,75.60
2018-05-10T11:30:39.487Z,75.00
2018-05-10T11:33:09.547Z,74.50
2018-05-10T11:35:43.058Z,74.10
2018-05-10T11:38:11.935Z,74.20
2018-05-10T11:43:12.467Z,78.60
2018-05-10T11:45:46.503Z,74.50
2018-05-10T11:48:15.249Z,75.40
2018-05-10T11:50:48.935Z,75.00
2018-05-10T11:53:17.577Z,75.40
2018-05-10T11:55:59.432Z,75.40
2018-05-10T11:58:29.559Z,75.20
2018-05-10T12:00:58.834Z,75.90
2018-05-10T12:05:57.460Z,75.80
2018-05-10T12:08:26.691Z,76.80
2018-05-10T12:10:58.847Z,76.30
2018-05-10T12:18:29.588Z,77.20
2018-05-10T12:21:12.360Z,79.20
2018-05-10T12:23:40.883Z,79.60
2018-05-10T12:26:09.439Z,80.70
2018-05-10T12:31:12.942Z,80.40
2018-05-10T12:33:41.690Z,79.30
2018-05-10T12:36:12.560Z,77.90
2018-05-10T12:38:41.041Z,76.90
2018-05-10T12:41:13.767Z,75.80
2018-05-10T12:43:42.579Z,75.60
2018-05-10T12:46:15.515Z,74.30
2018-05-10T12:51:18.756Z,74.50
2018-05-10T12:53:48.057Z,73.40
2018-05-10T12:56:20.878Z,73.40
2018-05-10T12:58:49.776Z,73.70
2018-05-10T13:01:23.822Z,73.20
2018-05-10T13:03:52.339Z,73.30
2018-05-10T13:06:25.269Z,73.30
2018-05-10T13:08:54.112Z,72.20
2018-05-10T13:11:26.848Z,72.50
2018-05-10T13:13:56.923Z,71.60
2018-05-10T13:16:30.049Z,71.90
2018-05-10T13:18:59.881Z,71.50
2018-05-10T13:21:33.042Z,71.30
2018-05-10T13:24:03.723Z,71.00
2018-05-10T13:29:01.827Z,70.30
2018-05-10T13:31:37.503Z,70.30
2018-05-10T13:34:06.379Z,70.60
2018-05-10T13:36:39.638Z,70.80
2018-05-10T13:39:11.681Z,69.70
2018-05-10T13:41:42.144Z,70.10
2018-05-10T13:44:10.723Z,68.60
2018-05-10T13:49:12.670Z,66.80
2018-05-10T13:51:55.677Z,66.00
2018-05-10T13:54:24.520Z,64.00
2018-05-10T13:56:54.373Z,62.70
2018-05-10T13:59:23.567Z,62.20
2018-05-10T14:01:58.116Z,60.70
2018-05-10T14:04:27.503Z,58.90
2018-05-10T14:07:07.210Z,59.00
2018-05-10T14:12:06.416Z,56.90
2018-05-10T14:14:37.106Z,55.00
2018-05-10T14:17:05.978Z,54.30
2018-05-10T14:19:35.871Z,54.80
2018-05-10T14:22:05.643Z,55.40
2018-05-10T14:24:36.954Z,55.40
2018-05-10T14:27:07.025Z,56.90
2018-05-10T14:29:35.536Z,57.50
2018-05-10T14:32:07.235Z,57.40
2018-05-10T14:34:37.056Z,57.00
2018-05-10T14:37:13.311Z,58.10
2018-05-10T14:39:42.643Z,58.80
2018-05-10T14:42:13.267Z,58.40
2018-05-10T14:44:41.950Z,58.40
2018-05-10T14:47:15.364Z,58.60
2018-05-10T14:49:44.577Z,58.60
2018-05-10T14:52:21.824Z,58.60
2018-05-10T14:54:51.804Z,58.60
2018-05-10T14:57:22.452Z,59.40
2018-05-10T15:02:22.427Z,58.70
2018-05-10T15:04:51.466Z,59.30
2018-05-10T15:07:24.474Z,59.30
2018-05-10T15:09:54.476Z,59.30
2018-05-10T15:12:35.328Z,59.60
2018-05-10T15:15:04.580Z,59.60
2018-05-10T15:17:34.563Z,59.50
2018-05-10T15:22:33.338Z,59.50
2018-05-10T15:25:02.722Z,60.10
2018-05-10T15:27:40.999Z,59.90
2018-05-10T15:30:11.454Z,60.50
2018-05-10T15:32:39.943Z,61.20
2018-05-10T15:35:10.488Z,61.80
2018-05-10T15:37:39.813Z,60.70
2018-05-10T15:40:09.835Z,62.60
2018-05-10T15:45:08.322Z,63.30
2018-05-10T15:47:41.852Z,63.20
2018-05-10T15:50:11.487Z,63.30
2018-05-10T15:52:52.315Z,63.20
2018-05-10T15:55:21.610Z,63.60
2018-05-10T15:57:51.490Z,63.40
2018-05-10T16:00:21.503Z,63.30
2018-05-10T16:02:50.028Z,63.00
2018-05-10T16:05:20.475Z,63.00
2018-05-10T16:07:53.203Z,62.50
2018-05-10T16:10:21.707Z,61.90
2018-05-10T16:12:57.588Z,62.40
2018-05-10T16:15:26.080Z,61.90
2018-05-10T16:17:57.304Z,62.10
2018-05-10T16:20:26.965Z,60.60
2018-05-10T16:25:29.499Z,59.60
2018-05-10T16:28:11.772Z,59.00
2018-05-10T16:30:40.940Z,58.30
2018-05-10T16:33:10.405Z,59.00
2018-05-10T16:35:39.356Z,58.70
2018-05-10T16:38:08.167Z,58.20
2018-05-10T16:40:38.315Z,58.50
2018-05-10T16:45:39.901Z,58.30
2018-05-10T16:48:13.971Z,58.50
2018-05-10T16:53:16.348Z,58.50
2018-05-10T16:55:45.799Z,59.20
2018-05-10T16:58:18.610Z,59.30
2018-05-10T17:00:47.515Z,58.60
2018-05-10T17:03:22.452Z,57.80
2018-05-10T17:05:51.939Z,58.30
2018-05-10T17:08:22.179Z,58.80
2018-05-10T17:10:50.719Z,59.30
2018-05-10T17:13:24.028Z,59.30
2018-05-10T17:15:52.610Z,58.50
2018-05-10T17:18:26.587Z,59.10
2018-05-10T17:20:56.147Z,58.80
2018-05-10T17:23:29.570Z,59.00
2018-05-10T17:25:59.236Z,58.40
2018-05-10T17:36:12.257Z,58.10
2018-05-10T17:38:41.519Z,58.00
2018-05-10T17:41:11.571Z,58.00
2018-05-10T17:43:41.009Z,58.90
2018-05-10T17:46:10.336Z,58.80
2018-05-10T17:48:43.013Z,59.00
2018-05-10T17:51:11.812Z,59.40
2018-05-10T17:53:46.983Z,59.20
2018-05-10T17:56:16.552Z,60.60
2018-05-10T17:58:46.128Z,60.20
2018-05-10T18:01:15.883Z,59.80
2018-05-10T18:03:49.232Z,60.60
2018-05-10T18:06:19.254Z,59.50
2018-05-10T18:08:50.391Z,59.20
2018-05-10T18:11:21.018Z,58.80
2018-05-10T18:13:52.427Z,58.80
2018-05-10T18:16:21.009Z,60.10
2018-05-10T18:19:03.144Z,59.30
2018-05-10T18:24:01.920Z,59.30
2018-05-10T18:26:31.195Z,60.30
2018-05-10T18:29:00.655Z,59.90
2018-05-10T18:31:29.423Z,60.10
2018-05-10T18:34:03.071Z,60.30
2018-05-10T18:36:32.447Z,60.30
2018-05-10T18:39:05.424Z,60.70
2018-05-10T18:41:34.816Z,60.80
2018-05-10T18:44:08.973Z,60.70
2018-05-10T18:49:11.867Z,61.30
2018-05-10T18:51:41.534Z,61.40
2018-05-10T18:54:23.635Z,61.90
2018-05-10T19:01:51.772Z,62.30
2018-05-10T19:04:20.960Z,62.80
2018-05-10T19:06:50.830Z,62.90
2018-05-10T19:09:22.418Z,62.90
2018-05-10T19:14:24.537Z,63.80
2018-05-10T19:16:54.681Z,63.40
2018-05-10T19:19:25.694Z,63.40
2018-05-10T19:21:54.973Z,63.40
2018-05-10T19:26:57.983Z,63.90
2018-05-10T19:29:29.902Z,63.50
2018-05-10T19:31:59.220Z,64.00
2018-05-10T19:34:34.673Z,63.60
2018-05-10T19:39:34.750Z,63.90
2018-05-10T19:42:05.310Z,64.20
2018-05-10T19:47:05.870Z,64.40
2018-05-10T19:49:39.731Z,64.10
2018-05-10T19:54:51.715Z,65.00
2018-05-10T20:04:49.425Z,65.30
2018-05-10T20:07:17.909Z,65.60
2018-05-10T20:12:20.908Z,65.70
2018-05-10T20:14:53.781Z,65.90
2018-05-10T20:19:57.113Z,66.30
2018-05-10T20:22:25.619Z,66.60
2018-05-10T20:25:00.048Z,67.00
2018-05-10T20:27:30.266Z,67.10
2018-05-10T20:30:02.893Z,67.50
2018-05-10T20:32:31.903Z,67.70
2018-05-10T20:37:35.129Z,68.40
2018-05-10T20:40:06.965Z,68.60
2018-05-10T20:45:12.170Z,69.10
2018-05-10T20:47:42.357Z,69.50
2018-05-10T20:50:13.875Z,69.60
2018-05-10T20:55:15.291Z,69.90
2018-05-10T20:57:44.978Z,70.00
2018-05-10T21:00:17.871Z,70.50
2018-05-10T21:02:50.878Z,70.90
2018-05-10T21:10:22.637Z,71.70
2018-05-10T21:12:51.106Z,72.10
2018-05-10T21:15:32.331Z,72.60
2018-05-10T21:18:01.161Z,72.80
2018-05-10T21:22:59.339Z,73.30
2018-05-10T21:25:28.468Z,73.80
2018-05-10T21:27:57.311Z,74.00
2018-05-10T21:30:39.415Z,74.20
2018-05-10T21:33:09.372Z,74.40
2018-05-10T21:40:37.712Z,75.30
2018-05-10T21:45:37.209Z,75.80
2018-05-10T21:53:18.043Z,76.60
2018-05-10T21:55:46.995Z,76.90
2018-05-10T21:58:17.087Z,76.90
2018-05-10T22:00:48.849Z,78.00
2018-05-10T22:03:18.365Z,77.70
2018-05-10T22:08:21.775Z,79.00
2018-05-10T22:10:53.640Z,78.60
2018-05-10T22:15:54.173Z,78.90
2018-05-10T22:18:24.479Z,79.00
2018-05-10T22:20:55.470Z,79.20
2018-05-10T22:23:25.047Z,79.30
2018-05-10T22:28:25.578Z,79.90
2018-05-10T22:33:28.244Z,80.30
2018-05-10T22:36:09.661Z,80.50
2018-05-10T22:38:39.571Z,80.50
2018-05-10T22:41:09.706Z,80.70
2018-05-10T22:43:38.271Z,80.80
2018-05-10T22:48:37.959Z,81.30
2018-05-10T22:51:10.440Z,81.40
2018-05-10T22:53:39.861Z,81.50
2018-05-10T22:58:52.019Z,82.40
2018-05-10T23:01:20.997Z,81.70
2018-05-10T23:03:49.590Z,81.70
2018-05-10T23:06:19.891Z,81.80
2018-05-10T23:08:49.536Z,81.80
2018-05-10T23:11:20.192Z,82.40
2018-05-10T23:13:51.398Z,81.90
2018-05-10T23:16:23.141Z,82.10
2018-05-10T23:18:51.756Z,82.00
2018-05-10T23:21:24.698Z,81.90
2018-05-10T23:23:55.444Z,81.90
2018-05-10T23:26:27.510Z,81.90
2018-05-10T23:28:56.260Z,81.70
2018-05-10T23:31:29.991Z,82.30
2018-05-10T23:33:59.280Z,81.50
2018-05-10T23:36:31.626Z,81.30
2018-05-10T23:39:00.878Z,82.10
2018-05-10T23:41:33.343Z,81.90
2018-05-10T23:44:02.444Z,82.20
2018-05-10T23:46:36.133Z,82.50
2018-05-10T23:51:38.453Z,83.60
2018-05-10T23:56:41.054Z,83.10
2018-05-10T23:59:10.811Z,82.90
